Aviation Digital Data Service (ADDS)

Output produced by TAFs form (0142 UTC 22 November 2017)
found at http://www.aviationweather.gov/adds/tafs/
 
METAR text: RJBD 220100Z 11006KT 9999 FEW040 SCT070 BKN150 14/07 Q1021
Conditions at: RJBD (NANKISHIRAHAMA A, JP) observed 0100 UTC 22 November 2017
Temperature: 14.0°C (57°F)
Dewpoint: 7.0°C (45°F) [RH = 63%]
Pressure (altimeter): 30.15 inches Hg (1021.0 mb)
Winds: from the ESE (110 degrees) at 7 MPH (6 knots; 3.1 m/s)
Visibility: 6 or more miles (10+ km)
Ceiling: 15000 feet AGL
Clouds: few clouds at 4000 feet AGL
scattered clouds at 7000 feet AGL
broken clouds at 15000 feet AGL
Weather: no significant weather observed at this time